createdAt,value
2023-04-09T00:02:15.213Z,35.70
2023-04-09T00:05:16.390Z,39.38
2023-04-09T00:08:17.685Z,40.50
2023-04-09T00:11:18.523Z,34.55
2023-04-09T00:14:20.146Z,37.05
2023-04-09T00:17:21.855Z,35.08
2023-04-09T00:20:23.148Z,36.38
2023-04-09T00:23:23.838Z,34.70
2023-04-09T00:26:24.817Z,37.45
2023-04-09T00:29:26.421Z,38.60
2023-04-09T00:32:27.810Z,35.58
2023-04-09T00:35:29.020Z,37.92
2023-04-09T00:38:29.968Z,37.03
2023-04-09T00:41:30.712Z,34.60
2023-04-09T00:44:31.702Z,34.53
2023-04-09T00:47:35.095Z,36.85
2023-04-09T00:50:36.609Z,35.95
2023-04-09T00:53:37.952Z,37.80
2023-04-09T00:56:39.258Z,37.63
2023-04-09T00:59:40.394Z,37.92
2023-04-09T01:02:42.607Z,37.05
2023-04-09T01:06:30.006Z,38.60
2023-04-09T01:09:39.547Z,37.85
2023-04-09T01:13:07.530Z,35.88
2023-04-09T01:16:13.074Z,43.88
2023-04-09T01:19:51.531Z,35.83
2023-04-09T01:23:28.068Z,33.72
2023-04-09T01:26:37.771Z,36.00
2023-04-09T01:29:50.093Z,34.03
2023-04-09T01:32:54.609Z,38.90
2023-04-09T01:35:57.801Z,32.75
2023-04-09T01:39:02.549Z,39.50
2023-04-09T01:42:04.722Z,37.25
2023-04-09T01:45:07.588Z,38.38
2023-04-09T01:48:09.630Z,38.70
2023-04-09T01:51:14.289Z,35.83
2023-04-09T01:54:17.371Z,35.25
2023-04-09T01:57:18.383Z,40.00
2023-04-09T02:00:20.722Z,40.22
2023-04-09T02:03:38.597Z,39.60
2023-04-09T02:06:48.901Z,39.35
2023-04-09T02:09:53.485Z,43.85
2023-04-09T02:12:57.038Z,40.47
2023-04-09T02:16:01.975Z,38.95
2023-04-09T02:19:03.355Z,42.72
2023-04-09T02:22:05.663Z,44.58
2023-04-09T02:25:07.400Z,46.50
2023-04-09T02:28:08.416Z,45.35
2023-04-09T02:31:09.368Z,44.83
2023-04-09T02:34:10.429Z,41.38
2023-04-09T02:37:11.360Z,41.22
2023-04-09T02:40:12.906Z,43.78
2023-04-09T02:43:14.380Z,46.70
2023-04-09T02:46:15.805Z,44.97
2023-04-09T02:49:17.059Z,43.15
2023-04-09T02:52:20.469Z,46.58
2023-04-09T02:55:22.423Z,48.88
2023-04-09T02:58:23.449Z,48.83
2023-04-09T03:01:24.375Z,53.05
2023-04-09T03:04:25.752Z,50.88
2023-04-09T03:07:26.931Z,51.38
2023-04-09T03:10:27.720Z,56.70
2023-04-09T03:13:28.983Z,49.78
2023-04-09T03:16:30.130Z,53.47
2023-04-09T03:19:34.391Z,60.97
2023-04-09T03:22:40.188Z,56.90
2023-04-09T03:26:07.184Z,55.83
2023-04-09T03:29:15.786Z,50.55
2023-04-09T03:32:18.943Z,55.33
2023-04-09T03:35:20.834Z,54.15
2023-04-09T03:38:22.347Z,49.38
2023-04-09T03:41:23.786Z,54.53
2023-04-09T03:44:25.957Z,50.80
2023-04-09T03:47:34.652Z,49.60
2023-04-09T03:50:44.896Z,54.45
2023-04-09T03:53:49.876Z,52.97
2023-04-09T03:56:51.114Z,55.00
2023-04-09T03:59:56.934Z,54.67
2023-04-09T04:02:59.654Z,56.53
2023-04-09T04:06:21.227Z,62.30
2023-04-09T04:09:46.890Z,55.53
2023-04-09T04:12:51.591Z,53.15
2023-04-09T04:15:59.769Z,56.38
2023-04-09T04:19:01.279Z,65.30
2023-04-09T04:22:05.133Z,63.45
2023-04-09T04:25:10.605Z,60.83
2023-04-09T04:28:12.229Z,66.40
2023-04-09T04:31:16.205Z,63.72
2023-04-09T04:34:18.059Z,69.95
2023-04-09T04:37:23.368Z,62.05
2023-04-09T04:40:28.274Z,61.40
2023-04-09T04:43:34.480Z,63.53
2023-04-09T04:46:35.940Z,57.97
2023-04-09T04:49:37.259Z,60.85
2023-04-09T04:52:40.834Z,58.97
2023-04-09T04:55:42.301Z,59.22
2023-04-09T04:58:47.589Z,61.83
2023-04-09T05:01:51.464Z,64.35
2023-04-09T05:04:52.822Z,61.30
2023-04-09T05:07:59.490Z,63.10
2023-04-09T05:11:00.691Z,66.75
2023-04-09T05:14:09.235Z,61.97
2023-04-09T05:17:10.746Z,62.45
2023-04-09T05:20:17.237Z,67.43
2023-04-09T05:23:28.160Z,65.05
2023-04-09T05:26:29.532Z,70.60
2023-04-09T05:29:32.371Z,74.47
2023-04-09T05:32:34.657Z,71.35
2023-04-09T05:35:39.829Z,72.82
2023-04-09T05:38:41.278Z,72.43
2023-04-09T05:41:45.029Z,80.45
2023-04-09T05:45:12.264Z,78.75
2023-04-09T05:48:21.350Z,80.75
2023-04-09T05:51:22.812Z,73.35
2023-04-09T05:54:24.211Z,71.93
2023-04-09T05:57:25.616Z,66.78
2023-04-09T06:00:32.319Z,62.05
2023-04-09T06:03:33.468Z,57.00
2023-04-09T06:06:34.954Z,54.70
2023-04-09T06:09:36.214Z,49.10
2023-04-09T06:12:37.558Z,53.33
2023-04-09T06:15:39.868Z,47.05
2023-04-09T06:18:42.664Z,41.72
2023-04-09T06:21:43.674Z,46.40
2023-04-09T06:24:44.525Z,42.97
2023-04-09T06:27:45.785Z,43.33
2023-04-09T06:30:47.282Z,40.08
2023-04-09T06:33:48.220Z,40.88
2023-04-09T06:36:49.716Z,43.08
2023-04-09T06:40:00.423Z,35.90
2023-04-09T06:43:02.457Z,36.42
2023-04-09T06:46:11.678Z,36.47
2023-04-09T06:49:12.779Z,35.70
2023-04-09T06:52:13.648Z,32.90
2023-04-09T06:55:14.518Z,34.10
2023-04-09T06:58:16.699Z,33.70
2023-04-09T07:01:17.904Z,32.15
2023-04-09T07:04:19.304Z,31.52
2023-04-09T07:07:21.205Z,29.88
2023-04-09T07:10:22.520Z,33.45
2023-04-09T07:13:23.444Z,32.50
2023-04-09T07:16:25.028Z,32.00
2023-04-09T07:19:26.023Z,32.63
2023-04-09T07:22:29.285Z,31.88
2023-04-09T07:25:30.629Z,35.45
2023-04-09T07:28:32.352Z,32.90
2023-04-09T07:31:35.224Z,30.85
2023-04-09T07:34:37.891Z,29.95
2023-04-09T07:37:41.698Z,30.85
2023-04-09T07:40:42.760Z,27.27
2023-04-09T07:43:43.956Z,31.05
2023-04-09T07:46:45.168Z,27.90
2023-04-09T07:49:47.294Z,29.42
2023-04-09T07:52:48.653Z,27.30
2023-04-09T07:55:52.086Z,24.42
2023-04-09T07:58:53.410Z,23.00
2023-04-09T08:01:55.269Z,23.95
2023-04-09T08:04:56.732Z,24.90
2023-04-09T08:07:57.838Z,23.88
2023-04-09T08:10:59.087Z,25.48
2023-04-09T08:14:04.774Z,23.85
2023-04-09T08:17:06.029Z,23.50
2023-04-09T08:20:07.762Z,21.88
2023-04-09T08:23:08.896Z,22.23
2023-04-09T08:26:09.997Z,22.38
2023-04-09T08:29:13.803Z,24.00
2023-04-09T08:32:15.373Z,20.15
2023-04-09T08:35:16.573Z,21.52
2023-04-09T08:38:19.424Z,19.58
2023-04-09T08:41:22.579Z,18.05
2023-04-09T08:44:27.064Z,21.23
2023-04-09T08:47:28.561Z,18.45
2023-04-09T08:50:36.463Z,17.08
2023-04-09T08:53:39.315Z,16.58
2023-04-09T08:56:40.435Z,15.23
2023-04-09T08:59:42.077Z,17.52
2023-04-09T09:03:08.686Z,15.52
2023-04-09T09:06:22.908Z,17.08
2023-04-09T09:09:23.914Z,16.08
2023-04-09T09:12:43.256Z,15.90
2023-04-09T09:15:44.572Z,16.65
2023-04-09T09:18:45.635Z,15.88
2023-04-09T09:22:02.392Z,17.33
2023-04-09T09:25:13.089Z,16.83
2023-04-09T09:28:14.159Z,17.67
2023-04-09T09:31:18.175Z,16.15
2023-04-09T09:34:22.598Z,15.55
2023-04-09T09:37:31.588Z,16.00
2023-04-09T09:40:33.022Z,14.68
2023-04-09T09:43:43.731Z,13.77
2023-04-09T09:46:44.553Z,14.52
2023-04-09T09:49:49.174Z,13.25
2023-04-09T09:52:53.346Z,14.10
2023-04-09T09:55:57.474Z,13.10
2023-04-09T09:59:16.389Z,14.73
2023-04-09T10:02:24.260Z,14.38
2023-04-09T10:05:27.791Z,13.90
2023-04-09T10:08:30.702Z,13.07
2023-04-09T10:11:36.833Z,12.73
2023-04-09T10:14:38.501Z,13.70
2023-04-09T10:17:39.805Z,11.70
2023-04-09T10:20:52.964Z,10.38
2023-04-09T10:23:55.661Z,10.70
2023-04-09T10:27:10.733Z,10.48
2023-04-09T10:30:34.899Z,11.27
2023-04-09T10:33:38.355Z,11.20
2023-04-09T10:36:39.148Z,9.45
2023-04-09T10:39:45.960Z,8.65
2023-04-09T10:42:48.218Z,8.18
2023-04-09T10:45:53.762Z,10.90
2023-04-09T10:49:18.600Z,10.57
2023-04-09T10:52:30.573Z,10.35
2023-04-09T10:55:38.725Z,12.15
2023-04-09T10:58:39.599Z,8.10
2023-04-09T11:01:41.134Z,9.80
2023-04-09T11:05:24.930Z,11.00
2023-04-09T11:08:33.755Z,10.18
2023-04-09T11:11:36.071Z,9.15
2023-04-09T11:14:37.136Z,10.93
2023-04-09T11:17:38.075Z,10.18
2023-04-09T11:20:40.747Z,10.50
2023-04-09T11:23:42.737Z,10.50
2023-04-09T11:26:43.676Z,10.52
2023-04-09T11:29:44.539Z,9.45
2023-04-09T11:32:46.705Z,9.82
2023-04-09T11:35:48.553Z,8.50
2023-04-09T11:38:52.881Z,11.63
2023-04-09T11:41:54.104Z,9.90
2023-04-09T11:44:55.359Z,10.85
2023-04-09T11:47:57.684Z,8.27
2023-04-09T11:50:59.049Z,9.07
2023-04-09T11:54:05.595Z,7.00
2023-04-09T11:57:07.042Z,8.68
2023-04-09T12:00:18.222Z,8.90
2023-04-09T12:03:19.655Z,9.38
2023-04-09T12:06:23.265Z,8.75
2023-04-09T12:09:24.932Z,9.57
2023-04-09T12:12:25.994Z,40.15
2023-04-09T12:15:27.404Z,8.30
2023-04-09T12:18:28.391Z,6.97
2023-04-09T12:21:50.562Z,7.32
2023-04-09T12:24:51.925Z,6.50
2023-04-09T12:27:54.535Z,7.00
2023-04-09T12:30:55.693Z,6.50
2023-04-09T12:33:56.980Z,6.75
2023-04-09T12:36:58.140Z,6.47
2023-04-09T12:39:58.816Z,6.03
2023-04-09T12:43:00.086Z,5.35
2023-04-09T12:46:01.384Z,4.95
2023-04-09T12:49:02.473Z,6.20
2023-04-09T12:52:03.498Z,5.57
2023-04-09T12:55:06.127Z,5.85
2023-04-09T12:58:07.210Z,5.30
2023-04-09T13:01:08.678Z,4.60
2023-04-09T13:04:09.970Z,4.57
2023-04-09T13:07:13.195Z,4.78
2023-04-09T13:10:14.184Z,4.78
2023-04-09T13:13:15.025Z,5.88
2023-04-09T13:16:16.569Z,4.50
2023-04-09T13:19:17.361Z,4.82
2023-04-09T13:22:19.316Z,6.72
2023-04-09T13:25:20.960Z,3.97
2023-04-09T13:28:21.703Z,4.07
2023-04-09T13:31:23.215Z,3.90
2023-04-09T13:34:25.564Z,4.40
2023-04-09T13:37:26.802Z,4.45
2023-04-09T13:40:28.004Z,3.85
2023-04-09T13:43:29.499Z,3.83
2023-04-09T13:46:30.396Z,3.78
2023-04-09T13:49:31.675Z,3.70
2023-04-09T13:52:33.298Z,3.20
2023-04-09T13:55:34.485Z,2.95
2023-04-09T13:58:35.245Z,4.53
2023-04-09T14:01:36.609Z,2.83
2023-04-09T14:04:38.132Z,3.00
2023-04-09T14:07:39.368Z,3.03
2023-04-09T14:10:40.225Z,3.00
2023-04-09T14:13:41.196Z,3.40
2023-04-09T14:16:42.360Z,3.40
2023-04-09T14:19:43.685Z,3.45
2023-04-09T14:22:49.325Z,3.08
2023-04-09T14:25:50.595Z,2.88
2023-04-09T14:28:52.243Z,3.05
2023-04-09T14:31:57.141Z,3.08
2023-04-09T14:34:58.504Z,2.78
2023-04-09T14:37:59.275Z,2.30
2023-04-09T14:41:00.099Z,2.47
2023-04-09T14:44:01.086Z,5.95
2023-04-09T14:47:02.130Z,2.50
2023-04-09T14:50:03.535Z,4.93
2023-04-09T14:53:05.108Z,93.53
2023-04-09T14:56:06.818Z,35.50
2023-04-09T14:59:07.870Z,1.92
2023-04-09T15:02:08.784Z,2.40
2023-04-09T15:05:11.037Z,11.32
2023-04-09T15:08:13.513Z,30.00
2023-04-09T15:11:20.329Z,17.67
2023-04-09T15:14:21.683Z,3.05
2023-04-09T15:17:24.178Z,2.97
2023-04-09T15:20:25.229Z,2.60
2023-04-09T15:23:26.045Z,3.90
2023-04-09T15:26:30.013Z,6.43
2023-04-09T15:29:32.879Z,3.47
2023-04-09T15:32:33.801Z,2.85
2023-04-09T15:35:36.558Z,2.50
2023-04-09T15:38:37.856Z,2.75
2023-04-09T15:41:40.055Z,2.47
2023-04-09T15:44:41.679Z,2.15
2023-04-09T15:47:44.293Z,2.03
2023-04-09T15:50:46.702Z,2.13
2023-04-09T15:53:47.646Z,1.90
2023-04-09T15:56:48.432Z,4.63
2023-04-09T15:59:49.494Z,1.80
2023-04-09T16:02:50.687Z,1.95
2023-04-09T16:05:51.421Z,12.60
2023-04-09T16:08:53.110Z,9.88
2023-04-09T16:11:54.738Z,6.78
2023-04-09T16:14:56.031Z,2.30
2023-04-09T16:17:57.319Z,3.08
2023-04-09T16:20:58.725Z,2.53
2023-04-09T16:24:01.525Z,2.10
2023-04-09T16:27:02.290Z,1.83
2023-04-09T16:30:03.688Z,1.95
2023-04-09T16:33:04.933Z,56.28
2023-04-09T16:36:06.464Z,58.55
2023-04-09T16:39:07.510Z,187.90
2023-04-09T16:42:08.532Z,114.82
2023-04-09T16:45:11.171Z,63.10
2023-04-09T16:48:13.001Z,490.23
2023-04-09T16:51:13.922Z,1021.90
2023-04-09T16:54:14.770Z,647.70
2023-04-09T16:57:16.665Z,344.00
2023-04-09T17:00:18.385Z,130.65
2023-04-09T17:03:19.762Z,18.95
2023-04-09T17:06:20.943Z,8.90
2023-04-09T17:09:21.861Z,9.43
2023-04-09T17:12:24.539Z,10.88
2023-04-09T17:15:26.058Z,15.93
2023-04-09T17:18:27.335Z,10.55
2023-04-09T17:21:28.543Z,4.68
2023-04-09T17:24:30.340Z,7.72
2023-04-09T17:27:31.617Z,5.57
2023-04-09T17:30:34.982Z,52.63
2023-04-09T17:33:36.139Z,148.80
2023-04-09T17:36:37.738Z,9.45
2023-04-09T17:39:38.659Z,9.07
2023-04-09T17:42:39.976Z,4.00
2023-04-09T17:45:42.613Z,20.80
2023-04-09T17:48:44.753Z,7.65
2023-04-09T17:51:45.910Z,20.20
2023-04-09T17:54:47.429Z,15.07
2023-04-09T17:57:48.795Z,25.45
2023-04-09T18:00:49.694Z,21.88
2023-04-09T18:03:50.655Z,50.63
2023-04-09T18:06:52.161Z,49.58
2023-04-09T18:09:53.149Z,161.30
2023-04-09T18:12:54.436Z,22.58
2023-04-09T18:15:55.487Z,15.63
2023-04-09T18:18:56.862Z,8.50
2023-04-09T18:21:57.895Z,7.43
2023-04-09T18:24:58.665Z,5.82
2023-04-09T18:27:59.488Z,14.18
2023-04-09T18:31:00.358Z,16.73
2023-04-09T18:34:01.555Z,13.10
2023-04-09T18:37:02.626Z,21.73
2023-04-09T18:40:04.410Z,26.35
2023-04-09T18:43:05.453Z,21.08
2023-04-09T18:46:06.906Z,50.60
2023-04-09T18:49:08.239Z,29.25
2023-04-09T18:52:10.481Z,39.17
2023-04-09T18:55:12.293Z,18.83
2023-04-09T18:58:15.142Z,19.67
2023-04-09T19:01:17.695Z,83.53
2023-04-09T19:04:18.814Z,61.65
2023-04-09T19:07:20.140Z,78.90
2023-04-09T19:10:21.087Z,40.80
2023-04-09T19:13:22.255Z,70.30
2023-04-09T19:16:23.235Z,123.68
2023-04-09T19:19:24.567Z,110.55
2023-04-09T19:22:26.097Z,86.45
2023-04-09T19:25:28.952Z,58.40
2023-04-09T19:28:30.440Z,82.68
2023-04-09T19:31:32.589Z,162.68
2023-04-09T19:34:33.628Z,63.00
2023-04-09T19:37:34.948Z,36.30
2023-04-09T19:40:36.479Z,58.65
2023-04-09T19:43:39.194Z,110.90
2023-04-09T19:46:40.474Z,120.75
2023-04-09T19:49:42.087Z,108.05
2023-04-09T19:52:43.138Z,89.03
2023-04-09T19:55:44.120Z,101.47
2023-04-09T19:58:45.339Z,250.90
2023-04-09T20:01:48.223Z,83.70
2023-04-09T20:04:49.504Z,114.03
2023-04-09T20:07:52.901Z,72.47
2023-04-09T20:10:54.021Z,40.88
2023-04-09T20:13:54.962Z,125.20
2023-04-09T20:16:57.029Z,178.40
2023-04-09T20:19:58.097Z,146.38
2023-04-09T20:22:59.288Z,172.98
2023-04-09T20:26:00.551Z,177.27
2023-04-09T20:29:02.041Z,592.78
2023-04-09T20:32:03.823Z,357.10
2023-04-09T20:35:05.944Z,258.33
2023-04-09T20:38:06.958Z,117.75
2023-04-09T20:41:07.840Z,242.18
2023-04-09T20:44:08.820Z,208.85
2023-04-09T20:47:09.795Z,252.43
2023-04-09T20:50:11.282Z,225.45
2023-04-09T20:53:12.155Z,482.65
2023-04-09T20:56:13.373Z,500.50
2023-04-09T20:59:15.282Z,512.80
2023-04-09T21:02:17.794Z,782.47
2023-04-09T21:05:23.836Z,629.00
2023-04-09T21:08:25.168Z,839.42
2023-04-09T21:11:26.025Z,443.80
2023-04-09T21:14:26.827Z,127.68
2023-04-09T21:17:33.120Z,438.13
2023-04-09T21:20:34.008Z,201.75
2023-04-09T21:23:34.931Z,70.22
2023-04-09T21:26:49.264Z,235.18
2023-04-09T21:29:51.949Z,397.90
2023-04-09T21:32:54.714Z,367.92
2023-04-09T21:35:56.164Z,82.50
2023-04-09T21:38:57.704Z,346.25
2023-04-09T21:41:58.888Z,469.30
2023-04-09T21:44:59.879Z,382.23
2023-04-09T21:48:00.835Z,327.25
2023-04-09T21:51:02.060Z,273.17
2023-04-09T21:54:11.864Z,142.32
2023-04-09T21:57:13.187Z,228.32
2023-04-09T22:00:16.464Z,449.65
2023-04-09T22:03:17.710Z,144.35
2023-04-09T22:06:19.762Z,159.32
2023-04-09T22:09:20.731Z,129.35
2023-04-09T22:12:21.973Z,138.52
2023-04-09T22:15:23.267Z,195.55
2023-04-09T22:18:24.071Z,138.23
2023-04-09T22:21:26.196Z,39.05
2023-04-09T22:24:28.934Z,62.65
2023-04-09T22:27:30.127Z,13.95
2023-04-09T22:30:31.668Z,37.08
2023-04-09T22:33:32.992Z,51.22
2023-04-09T22:36:34.074Z,50.17
2023-04-09T22:39:35.390Z,29.63
2023-04-09T22:42:36.716Z,19.02
2023-04-09T22:45:37.938Z,14.00
2023-04-09T22:48:55.554Z,12.23
2023-04-09T22:51:56.646Z,15.68
2023-04-09T22:54:57.678Z,12.05
2023-04-09T22:57:59.823Z,11.20
2023-04-09T23:01:00.699Z,13.63
2023-04-09T23:04:01.785Z,11.63
2023-04-09T23:07:02.915Z,14.23
2023-04-09T23:10:03.744Z,10.45
2023-04-09T23:13:04.660Z,12.77
2023-04-09T23:16:10.030Z,11.05
2023-04-09T23:19:11.615Z,11.55
2023-04-09T23:22:12.416Z,10.35
2023-04-09T23:25:14.976Z,11.02
2023-04-09T23:28:16.379Z,10.73
2023-04-09T23:31:17.263Z,11.10
2023-04-09T23:34:17.972Z,10.57
2023-04-09T23:37:19.427Z,73.97
2023-04-09T23:40:20.544Z,15.27
2023-04-09T23:43:21.588Z,24.60
2023-04-09T23:46:23.130Z,12.85
2023-04-09T23:49:23.929Z,9.82
2023-04-09T23:52:27.655Z,11.05
2023-04-09T23:55:28.993Z,10.95
2023-04-09T23:58:29.915Z,9.18
